Time;durP1;ratioP1;P1;durP2;ratioP2;P2;SDS_P1;SDS_P2;PMS_P1;PMS_P2;Temp;Humidity;BMP_temperature;BMP_pressure;BME280_temperature;BME280_humidity;BME280_pressure;Samples;Min_cycle;Max_cycle;Signal;HPM_P1;HPM_P2
2021/07/28 00:01:22;;;;;;;7.45;5.88;;;;;;;28.68;100.00;101145.00;4917370;29;20039;-70
2021/07/28 00:04:08;;;;;;;8.20;6.20;;;;;;;28.78;100.00;101145.94;4917221;29;20040;-70
2021/07/28 00:06:54;;;;;;;10.20;6.18;;;;;;;28.56;100.00;101154.13;4917669;29;20028;-70
2021/07/28 00:09:40;;;;;;;6.68;5.97;;;;;;;28.78;100.00;101150.47;4917734;29;20064;-70
2021/07/28 00:12:26;;;;;;;9.18;5.85;;;;;;;28.93;100.00;101160.78;4917769;29;20034;-70
2021/07/28 00:15:12;;;;;;;8.65;6.05;;;;;;;28.64;100.00;101148.13;4917035;29;20028;-70
2021/07/28 00:18:02;;;;;;;8.13;5.68;;;;;;;28.94;100.00;101153.53;4917118;29;20036;-70
2021/07/28 00:23:34;;;;;;;12.25;5.90;;;;;;;28.43;100.00;101149.91;4917543;29;20039;-70
2021/07/28 00:26:20;;;;;;;9.40;5.80;;;;;;;28.50;100.00;101149.28;4917193;29;20063;-71
2021/07/28 00:29:05;;;;;;;6.30;5.57;;;;;;;28.61;100.00;101148.38;4916734;29;20028;-71
2021/07/28 00:31:51;;;;;;;8.50;5.78;;;;;;;28.71;100.00;101150.13;4917475;29;20028;-70
2021/07/28 00:34:37;;;;;;;8.82;6.30;;;;;;;28.69;100.00;101149.41;4916712;29;20143;-70
2021/07/28 00:37:23;;;;;;;8.88;5.80;;;;;;;28.70;100.00;101144.88;4917255;29;20039;-71
2021/07/28 00:40:10;;;;;;;6.88;5.57;;;;;;;28.56;100.00;101150.59;4916967;29;20032;-70
2021/07/28 00:43:14;;;;;;;9.27;5.80;;;;;;;28.44;100.00;101144.41;4917205;29;20111;-70
2021/07/28 00:46:00;;;;;;;9.82;6.28;;;;;;;28.53;100.00;101140.91;4916735;29;20024;-70
2021/07/28 00:48:45;;;;;;;14.63;6.47;;;;;;;28.36;100.00;101136.06;4917222;29;20028;-70
2021/07/28 00:51:32;;;;;;;9.98;6.00;;;;;;;28.49;100.00;101139.47;4916917;29;20489;-69
2021/07/28 00:54:18;;;;;;;9.48;5.90;;;;;;;28.64;100.00;101143.56;4917018;29;20124;-69
2021/07/28 00:57:05;;;;;;;8.57;6.00;;;;;;;28.60;100.00;101142.09;4916455;29;20062;-69
2021/07/28 00:59:52;;;;;;;6.93;5.88;;;;;;;28.60;99.93;101143.97;4917549;29;20119;-70
2021/07/28 01:02:38;;;;;;;12.10;6.20;;;;;;;28.43;99.42;101147.22;4917021;29;20036;-70
2021/07/28 01:05:24;;;;;;;11.85;6.43;;;;;;;28.77;97.56;101141.50;4916804;29;20024;-69
2021/07/28 01:08:10;;;;;;;10.30;6.80;;;;;;;28.36;100.00;101138.75;4917265;29;20090;-70
2021/07/28 01:10:59;;;;;;;10.23;6.13;;;;;;;28.44;100.00;101144.41;4916933;29;20054;-70
2021/07/28 01:13:45;;;;;;;9.10;6.07;;;;;;;28.43;100.00;101142.69;4918060;29;20024;-70
2021/07/28 01:16:37;;;;;;;8.18;6.22;;;;;;;28.39;100.00;101137.66;4919912;29;20092;-70
2021/07/28 01:19:27;;;;;;;9.88;6.35;;;;;;;28.30;100.00;101136.59;4920031;29;20372;-70
2021/07/28 01:22:13;;;;;;;13.65;7.10;;;;;;;28.15;100.00;101132.50;4920090;29;20028;-70
2021/07/28 01:24:59;;;;;;;20.98;8.20;;;;;;;28.10;100.00;101133.84;4920175;29;20031;-71
2021/07/28 01:27:47;;;;;;;16.20;7.53;;;;;;;28.51;100.00;101132.13;4920007;29;20346;-71
2021/07/28 01:30:33;;;;;;;13.77;6.53;;;;;;;28.30;100.00;101135.72;4920086;29;20042;-70
2021/07/28 01:33:19;;;;;;;9.02;6.03;;;;;;;28.66;99.83;101135.34;4919573;29;20056;-70
2021/07/28 01:36:06;;;;;;;9.23;6.20;;;;;;;28.22;100.00;101130.13;4920382;29;20373;-71
2021/07/28 01:38:52;;;;;;;10.43;6.22;;;;;;;28.53;98.65;101132.81;4920292;29;20178;-70
2021/07/28 01:41:38;;;;;;;7.85;6.20;;;;;;;28.19;100.00;101127.69;4920170;29;20036;-70
2021/07/28 01:44:23;;;;;;;7.18;6.05;;;;;;;28.52;100.00;101135.69;4920607;29;20028;-70
2021/07/28 01:47:09;;;;;;;9.73;6.18;;;;;;;28.47;100.00;101133.34;4919497;29;20528;-70
2021/07/28 01:49:55;;;;;;;9.45;6.07;;;;;;;28.44;99.68;101133.63;4920606;29;20119;-70
2021/07/28 01:52:41;;;;;;;10.18;6.25;;;;;;;28.42;100.00;101138.28;4919224;29;20047;-69
2021/07/28 01:55:27;;;;;;;9.25;6.22;;;;;;;28.31;100.00;101141.00;4920517;29;20048;-70
2021/07/28 01:58:13;;;;;;;9.52;6.05;;;;;;;28.47;99.59;101138.75;4919268;29;20182;-69
2021/07/28 02:00:59;;;;;;;10.93;6.07;;;;;;;28.37;100.00;101140.47;4919465;29;20073;-70
2021/07/28 02:03:45;;;;;;;9.80;6.15;;;;;;;28.21;100.00;101142.75;4919619;29;20024;-70
2021/07/28 02:06:32;;;;;;;8.38;6.85;;;;;;;28.26;100.00;101139.66;4921376;29;20036;-70
2021/07/28 02:09:18;;;;;;;11.57;6.50;;;;;;;28.31;100.00;101132.91;4920044;29;20039;-70
2021/07/28 02:12:04;;;;;;;11.40;6.32;;;;;;;28.10;100.00;101132.03;4919527;29;20032;-70
2021/07/28 02:14:50;;;;;;;17.38;7.10;;;;;;;27.99;100.00;101142.84;4919339;29;20068;-70
2021/07/28 02:17:35;;;;;;;14.57;6.95;;;;;;;27.60;100.00;101135.28;4918868;29;20454;-69
2021/07/28 02:20:23;;;;;;;13.55;7.40;;;;;;;27.72;100.00;101138.84;4919420;29;20111;-70
2021/07/28 02:23:08;;;;;;;12.75;7.35;;;;;;;27.90;100.00;101149.00;4918903;29;20028;-70
2021/07/28 02:25:54;;;;;;;8.45;6.90;;;;;;;27.32;100.00;101149.25;4919541;29;20102;-70
2021/07/28 02:28:40;;;;;;;10.73;6.55;;;;;;;27.59;100.00;101147.03;4919408;29;20115;-70
2021/07/28 02:31:26;;;;;;;11.57;7.05;;;;;;;27.75;100.00;101155.59;4919226;29;20035;-70
2021/07/28 02:34:11;;;;;;;14.90;7.55;;;;;;;27.52;100.00;101157.47;4919081;29;20315;-69
2021/07/28 02:36:58;;;;;;;10.88;6.60;;;;;;;27.61;100.00;101155.00;4918719;29;20047;-69
2021/07/28 02:39:44;;;;;;;10.63;6.80;;;;;;;27.41;100.00;101152.06;4917975;29;20032;-69
2021/07/28 02:42:29;;;;;;;10.07;6.97;;;;;;;26.97;100.00;101151.19;4918435;29;20457;-70
2021/07/28 02:45:15;;;;;;;12.95;7.85;;;;;;;26.84;100.00;101153.97;4918843;29;20118;-70
2021/07/28 02:48:04;;;;;;;11.25;7.13;;;;;;;26.59;100.00;101147.91;4918798;29;20031;-70
2021/07/28 02:50:50;;;;;;;9.48;7.53;;;;;;;26.74;100.00;101146.75;4918951;29;20414;-70
2021/07/28 02:53:36;;;;;;;14.27;7.20;;;;;;;26.77;100.00;101146.50;4918326;29;20123;-70
2021/07/28 02:56:22;;;;;;;10.63;7.72;;;;;;;26.82;100.00;101161.31;4918301;29;20032;-70
2021/07/28 02:59:07;;;;;;;9.60;7.40;;;;;;;26.92;100.00;101161.44;4917990;29;20040;-70
2021/07/28 03:01:53;;;;;;;11.15;7.88;;;;;;;26.65;100.00;101160.91;4918703;29;20035;-70
2021/07/28 03:04:39;;;;;;;10.77;7.97;;;;;;;26.63;100.00;101155.63;4917333;29;20032;-70
2021/07/28 03:07:25;;;;;;;10.00;8.10;;;;;;;26.55;100.00;101152.66;4918179;29;20489;-70
2021/07/28 03:10:11;;;;;;;9.88;7.40;;;;;;;26.38;100.00;101155.78;4918348;29;20036;-70
2021/07/28 03:12:57;;;;;;;12.55;8.23;;;;;;;26.30;100.00;101142.06;4918229;29;20032;-70
2021/07/28 03:15:42;;;;;;;13.68;8.50;;;;;;;26.69;100.00;101151.63;4918011;29;20067;-70
2021/07/28 03:18:28;;;;;;;14.30;8.00;;;;;;;26.54;100.00;101153.63;4918560;29;20091;-70
2021/07/28 03:21:14;;;;;;;13.57;7.90;;;;;;;26.41;100.00;101143.94;4918160;29;20032;-70
2021/07/28 03:24:02;;;;;;;12.38;8.25;;;;;;;26.64;100.00;101151.97;4918040;29;20031;-70
2021/07/28 03:26:48;;;;;;;13.00;8.20;;;;;;;26.79;100.00;101155.28;4917937;29;20056;-70
2021/07/28 03:29:34;;;;;;;10.32;8.63;;;;;;;26.93;100.00;101152.41;4917935;29;20111;-70
2021/07/28 03:32:20;;;;;;;16.27;8.50;;;;;;;26.66;100.00;101162.59;4917574;29;20044;-70
2021/07/28 03:35:06;;;;;;;12.02;9.20;;;;;;;26.81;100.00;101159.56;4917455;29;20373;-70
2021/07/28 03:37:51;;;;;;;14.25;9.65;;;;;;;26.96;100.00;101168.28;4917481;29;20434;-71
2021/07/28 03:40:37;;;;;;;14.32;9.35;;;;;;;27.01;100.00;101161.56;4917503;29;20036;-70
2021/07/28 03:43:23;;;;;;;13.15;9.73;;;;;;;26.94;100.00;101163.06;4917339;29;20103;-69
2021/07/28 03:46:09;;;;;;;17.15;9.77;;;;;;;26.87;100.00;101166.31;4917606;29;20032;-70
2021/07/28 03:48:55;;;;;;;15.70;10.50;;;;;;;26.76;100.00;101169.00;4917727;29;20035;-70
2021/07/28 03:51:40;;;;;;;13.23;10.23;;;;;;;27.01;100.00;101168.81;4917200;29;20110;-70
2021/07/28 03:54:26;;;;;;;13.90;9.75;;;;;;;26.86;100.00;101165.47;4918288;29;20028;-70
2021/07/28 03:57:12;;;;;;;17.33;10.55;;;;;;;26.97;100.00;101162.78;4917426;29;20025;-70
2021/07/28 03:59:58;;;;;;;15.73;10.30;;;;;;;26.69;100.00;101160.53;4918226;29;20070;-70
2021/07/28 04:02:44;;;;;;;20.25;11.77;;;;;;;26.31;100.00;101156.31;4918322;29;20021;-70
2021/07/28 04:05:30;;;;;;;17.35;11.43;;;;;;;26.61;100.00;101162.09;4917755;29;20028;-70
2021/07/28 04:08:15;;;;;;;16.33;10.90;;;;;;;26.44;100.00;101162.50;4917399;29;20024;-70
2021/07/28 04:11:01;;;;;;;17.40;11.00;;;;;;;26.70;100.00;101156.00;4917719;29;20035;-70
2021/07/28 04:13:47;;;;;;;15.30;10.20;;;;;;;27.17;100.00;101158.53;4917679;29;20414;-70
2021/07/28 04:16:33;;;;;;;11.95;10.52;;;;;;;26.90;100.00;101147.25;4917660;29;20035;-69
2021/07/28 04:19:18;;;;;;;18.30;10.23;;;;;;;27.04;100.00;101147.00;4917711;29;20039;-69
2021/07/28 04:22:04;;;;;;;14.27;10.02;;;;;;;27.09;100.00;101148.38;4917765;29;20060;-69
2021/07/28 04:24:50;;;;;;;13.38;9.90;;;;;;;26.83;100.00;101151.38;4917869;29;20445;-69
2021/07/28 04:27:37;;;;;;;14.70;9.85;;;;;;;27.43;100.00;101151.97;4917064;29;20039;-69
2021/07/28 04:30:23;;;;;;;27.25;9.85;;;;;;;27.62;100.00;101149.50;4917581;29;20035;-70
2021/07/28 04:33:09;;;;;;;18.48;10.52;;;;;;;27.30;100.00;101149.41;4915940;29;20055;-70
2021/07/28 04:35:54;;;;;;;22.17;9.52;;;;;;;27.16;100.00;101155.00;4916924;29;20162;-70
2021/07/28 04:38:40;;;;;;;16.52;9.88;;;;;;;27.73;100.00;101145.94;4917542;29;20020;-70
2021/07/28 04:41:26;;;;;;;17.52;9.40;;;;;;;27.70;100.00;101155.13;4916954;29;20322;-70
2021/07/28 04:44:12;;;;;;;11.85;8.98;;;;;;;27.67;100.00;101157.19;4916841;29;20090;-70
2021/07/28 04:46:57;;;;;;;12.23;8.35;;;;;;;27.76;100.00;101156.47;4917427;29;20028;-71
2021/07/28 04:49:43;;;;;;;15.20;9.23;;;;;;;27.82;100.00;101159.53;4920635;29;20110;-70
2021/07/28 04:52:29;;;;;;;16.27;9.38;;;;;;;27.91;100.00;101155.22;4920148;29;20091;-70
2021/07/28 04:55:14;;;;;;;17.30;8.75;;;;;;;28.19;100.00;101149.25;4920721;29;20433;-70
2021/07/28 04:58:00;;;;;;;16.50;9.65;;;;;;;28.33;100.00;101148.97;4920740;29;20032;-71
2021/07/28 05:00:47;;;;;;;13.23;9.30;;;;;;;28.41;100.00;101149.16;4920645;29;20028;-70
2021/07/28 05:03:33;;;;;;;17.25;10.25;;;;;;;28.42;100.00;101159.00;4920505;29;20095;-70
2021/07/28 05:06:19;;;;;;;13.30;9.13;;;;;;;28.50;100.00;101156.50;4920694;29;20090;-70
2021/07/28 05:09:04;;;;;;;15.23;9.40;;;;;;;28.53;100.00;101157.09;4919989;29;20410;-70
2021/07/28 05:11:50;;;;;;;15.98;9.02;;;;;;;28.35;100.00;101157.75;4920092;29;20418;-70
2021/07/28 05:14:36;;;;;;;20.25;8.80;;;;;;;28.47;100.00;101152.22;4920469;29;20024;-70
2021/07/28 05:17:23;;;;;;;13.63;8.80;;;;;;;28.62;100.00;101156.31;4920029;29;20034;-69
2021/07/28 05:20:10;;;;;;;13.35;9.35;;;;;;;28.32;100.00;101153.47;4920253;29;20059;-71
2021/07/28 05:22:56;;;;;;;14.02;8.90;;;;;;;28.45;100.00;101158.75;4919970;29;20114;-70
2021/07/28 05:25:41;;;;;;;49.05;10.73;;;;;;;28.98;100.00;101163.97;4920049;29;20035;-71
2021/07/28 05:28:27;;;;;;;14.93;9.05;;;;;;;28.97;100.00;101169.47;4920149;29;20040;-70
2021/07/28 05:31:15;;;;;;;12.85;8.32;;;;;;;29.04;100.00;101171.53;4923400;29;20103;-70
2021/07/28 05:34:01;;;;;;;11.85;9.23;;;;;;;29.08;100.00;101172.13;4924989;29;20445;-70
2021/07/28 05:36:47;;;;;;;10.13;8.85;;;;;;;29.20;100.00;101181.84;4922764;29;20114;-70
2021/07/28 05:39:32;;;;;;;16.05;9.15;;;;;;;29.43;100.00;101184.25;4919844;29;20060;-71
2021/07/28 05:42:18;;;;;;;13.45;8.77;;;;;;;29.24;100.00;101188.69;4919215;29;20099;-70
2021/07/28 05:45:05;;;;;;;11.68;8.70;;;;;;;29.33;100.00;101183.34;4919778;29;20050;-71
2021/07/28 05:47:50;;;;;;;14.10;9.00;;;;;;;29.37;100.00;101184.78;4920144;29;20172;-71
2021/07/28 05:50:38;;;;;;;14.55;9.30;;;;;;;29.10;100.00;101184.50;4919284;29;20453;-71
2021/07/28 05:53:23;;;;;;;11.13;8.68;;;;;;;29.18;100.00;101176.59;4918872;29;20036;-71
2021/07/28 05:56:09;;;;;;;16.90;9.57;;;;;;;29.51;100.00;101183.56;4919060;29;20051;-71
2021/07/28 05:58:55;;;;;;;14.18;9.48;;;;;;;29.37;100.00;101176.66;4919546;29;20110;-71
2021/07/28 06:01:41;;;;;;;20.00;10.77;;;;;;;29.66;100.00;101183.06;4919693;29;20032;-71
2021/07/28 06:04:27;;;;;;;23.58;10.38;;;;;;;29.73;99.72;101172.59;4918874;29;20056;-71
2021/07/28 06:07:13;;;;;;;13.57;9.75;;;;;;;29.72;100.00;101179.84;4919739;29;20032;-70
2021/07/28 06:09:58;;;;;;;20.95;9.82;;;;;;;29.35;100.00;101180.50;4919088;29;20204;-71
2021/07/28 06:12:44;;;;;;;19.23;9.95;;;;;;;29.11;100.00;101170.03;4918773;29;20395;-71
2021/07/28 06:15:30;;;;;;;20.10;10.40;;;;;;;29.49;100.00;101172.88;4918917;29;20487;-71
2021/07/28 06:18:17;;;;;;;19.73;9.85;;;;;;;29.89;100.00;101181.88;4919763;29;20056;-71
2021/07/28 06:21:03;;;;;;;16.88;10.48;;;;;;;29.43;100.00;101188.78;4918947;29;20039;-72
2021/07/28 06:23:48;;;;;;;19.20;10.38;;;;;;;29.54;100.00;101186.81;4919289;29;20043;-71
2021/07/28 06:26:34;;;;;;;24.40;10.82;;;;;;;30.12;100.00;101180.63;4918621;29;20060;-72
2021/07/28 06:29:21;;;;;;;21.58;10.20;;;;;;;30.23;100.00;101174.28;4919001;29;20099;-72
2021/07/28 06:32:07;;;;;;;19.17;10.55;;;;;;;30.27;100.00;101167.59;4918552;29;20036;-71
2021/07/28 06:34:53;;;;;;;14.27;10.30;;;;;;;30.09;100.00;101172.78;4918560;29;20062;-71
2021/07/28 06:37:39;;;;;;;15.95;10.40;;;;;;;29.91;100.00;101179.88;4919157;29;20055;-72
2021/07/28 06:40:24;;;;;;;15.00;10.10;;;;;;;30.11;100.00;101175.38;4918844;29;20349;-71
2021/07/28 06:43:11;;;;;;;19.52;10.65;;;;;;;30.20;100.00;101171.84;4919157;29;20032;-72
2021/07/28 06:45:58;;;;;;;18.23;10.50;;;;;;;30.47;100.00;101169.31;4918973;29;20046;-71
2021/07/28 06:48:44;;;;;;;15.30;11.27;;;;;;;30.68;100.00;101164.59;4919108;29;20047;-70
2021/07/28 06:51:31;;;;;;;15.77;10.52;;;;;;;30.75;100.00;101163.03;4918478;29;20124;-71
2021/07/28 06:54:17;;;;;;;15.93;9.82;;;;;;;30.92;100.00;101168.56;4917999;29;20031;-71
2021/07/28 06:57:03;;;;;;;16.55;10.55;;;;;;;30.96;100.00;101166.41;4918055;29;20043;-71
2021/07/28 06:59:48;;;;;;;18.90;10.18;;;;;;;30.56;100.00;101166.59;4918820;29;20032;-70
2021/07/28 07:02:35;;;;;;;17.23;10.15;;;;;;;30.73;100.00;101152.38;4919260;29;20103;-71
2021/07/28 07:05:21;;;;;;;18.27;10.48;;;;;;;30.78;100.00;101162.75;4917511;29;20031;-71
2021/07/28 07:08:06;;;;;;;14.50;9.93;;;;;;;30.85;100.00;101164.72;4919730;29;20476;-71
2021/07/28 07:10:53;;;;;;;20.35;10.88;;;;;;;30.89;100.00;101170.69;4916810;29;20067;-71
2021/07/28 07:13:38;;;;;;;14.50;10.20;;;;;;;31.34;100.00;101166.34;4917967;29;20115;-71
2021/07/28 07:16:24;;;;;;;15.10;10.65;;;;;;;31.38;100.00;101166.88;4917419;29;20028;-71
2021/07/28 07:19:10;;;;;;;14.00;9.75;;;;;;;31.26;100.00;101179.78;4918624;29;20113;-71
2021/07/28 07:21:58;;;;;;;25.60;10.27;;;;;;;31.25;100.00;101169.91;4917674;29;20024;-71
2021/07/28 07:24:44;;;;;;;13.82;10.57;;;;;;;31.42;99.55;101179.13;4918601;29;20449;-71
2021/07/28 07:27:30;;;;;;;13.20;10.07;;;;;;;31.43;97.74;101181.69;4917672;29;20052;-71
2021/07/28 07:30:16;;;;;;;14.45;10.05;;;;;;;31.83;96.24;101181.38;4917446;29;20058;-71
2021/07/28 07:36:10;;;;;;;20.13;10.52;;;;;;;32.18;91.57;101178.75;4918787;29;20047;-71
2021/07/28 07:38:56;;;;;;;13.63;9.75;;;;;;;32.09;92.29;101179.63;4918785;29;20393;-71
2021/07/28 07:41:42;;;;;;;12.45;9.57;;;;;;;32.30;87.82;101183.78;4918267;29;20032;-71
2021/07/28 07:44:28;;;;;;;12.85;8.88;;;;;;;32.64;85.00;101184.81;4918126;29;20028;-73
2021/07/28 07:47:14;;;;;;;10.52;8.98;;;;;;;33.16;77.06;101191.16;4918965;29;20056;-70
2021/07/28 07:50:00;;;;;;;13.68;8.98;;;;;;;33.38;78.26;101190.63;4917689;29;20090;-70
2021/07/28 07:52:46;;;;;;;17.08;9.52;;;;;;;33.43;81.76;101191.84;4920481;29;20044;-69
2021/07/28 07:55:31;;;;;;;11.20;8.43;;;;;;;33.89;74.75;101187.84;4918014;29;20103;-70
2021/07/28 07:58:17;;;;;;;15.10;8.70;;;;;;;34.38;73.68;101185.13;4917293;29;20429;-70
2021/07/28 08:01:10;;;;;;;10.25;9.10;;;;;;;34.74;72.34;101191.06;4917734;29;20315;-70
2021/07/28 08:03:56;;;;;;;15.15;8.57;;;;;;;34.37;71.95;101182.56;4916997;29;20122;-70
2021/07/28 08:06:41;;;;;;;12.32;8.35;;;;;;;34.89;67.32;101178.50;4917335;29;20118;-70
2021/07/28 08:09:27;;;;;;;17.80;8.98;;;;;;;34.50;64.84;101178.31;4917473;29;20051;-70
2021/07/28 08:12:13;;;;;;;14.27;8.82;;;;;;;34.37;69.20;101177.09;4916962;29;20381;-70
2021/07/28 08:14:59;;;;;;;13.98;8.80;;;;;;;34.52;64.51;101178.16;4917034;29;20035;-69
2021/07/28 08:17:44;;;;;;;14.38;8.77;;;;;;;35.22;64.18;101178.28;4917168;29;20024;-71
2021/07/28 08:20:30;;;;;;;11.27;8.48;;;;;;;35.53;61.23;101177.53;4917842;29;20039;-73
2021/07/28 08:23:16;;;;;;;13.88;8.45;;;;;;;35.21;61.20;101178.47;4906228;29;20051;-70
2021/07/28 08:26:02;;;;;;;15.50;8.15;;;;;;;35.34;54.86;101178.78;4921580;29;20488;-70
2021/07/28 08:28:47;;;;;;;12.98;7.75;;;;;;;35.73;52.91;101176.09;4921098;29;20135;-71
2021/07/28 08:31:39;;;;;;;14.32;8.45;;;;;;;35.43;54.55;101166.00;4921483;29;20468;-77
2021/07/28 08:34:24;;;;;;;13.65;7.90;;;;;;;35.96;51.77;101169.69;4920193;29;20268;-73
2021/07/28 08:37:10;;;;;;;10.38;7.82;;;;;;;36.45;49.77;101165.66;4921027;29;20028;-73
2021/07/28 08:39:56;;;;;;;12.60;8.02;;;;;;;36.20;54.72;101169.53;4920418;29;20453;-72
2021/07/28 08:42:53;;;;;;;12.93;8.02;;;;;;;36.27;53.62;101165.09;4920464;29;20040;-72
2021/07/28 08:45:39;;;;;;;11.38;7.90;;;;;;;36.55;52.99;101160.78;4921028;29;20061;-73
2021/07/28 08:48:31;;;;;;;11.50;8.20;;;;;;;36.32;52.75;101154.47;4920652;29;20039;-71
2021/07/28 08:51:17;;;;;;;12.57;7.70;;;;;;;36.41;50.19;101156.13;4920398;29;20460;-72
2021/07/28 08:54:03;;;;;;;11.90;7.78;;;;;;;36.65;49.22;101150.47;4920114;29;20086;-73
2021/07/28 08:56:48;;;;;;;13.23;8.13;;;;;;;37.04;48.13;101156.56;4920504;29;20115;-73
2021/07/28 08:59:34;;;;;;;15.20;7.60;;;;;;;36.87;45.53;101151.44;4920082;29;20028;-73
2021/07/28 09:02:20;;;;;;;12.45;7.38;;;;;;;36.48;46.05;101140.69;4920096;29;20095;-72
2021/07/28 09:05:06;;;;;;;17.42;7.18;;;;;;;36.61;44.47;101149.13;4919990;29;20485;-72
2021/07/28 09:07:54;;;;;;;13.75;7.05;;;;;;;37.14;43.94;101151.72;4920787;29;20032;-72
2021/07/28 09:10:48;;;;;;;15.30;6.97;;;;;;;36.76;43.04;101144.56;4919517;29;20514;-72
2021/07/28 09:13:36;;;;;;;9.45;7.13;;;;;;;37.23;42.99;101139.66;4919812;29;20096;-73
2021/07/28 09:16:22;;;;;;;11.50;7.15;;;;;;;37.57;41.79;101139.09;4919744;29;20065;-72
2021/07/28 09:19:08;;;;;;;12.40;6.57;;;;;;;37.37;39.99;101132.50;4920434;29;20119;-72
2021/07/28 09:22:04;;;;;;;15.35;6.68;;;;;;;38.00;38.55;101133.53;4920103;29;20036;-72
2021/07/28 09:25:07;;;;;;;17.23;6.70;;;;;;;37.89;36.63;101128.56;4920379;29;20058;-73
2021/07/28 09:27:53;;;;;;;11.23;6.50;;;;;;;37.88;37.53;101128.75;4919528;29;20039;-73
2021/07/28 09:30:39;;;;;;;14.20;6.43;;;;;;;37.67;36.01;101129.56;4919693;29;20119;-73
2021/07/28 09:33:24;;;;;;;12.77;6.07;;;;;;;37.69;35.20;101126.66;4918534;29;20461;-73
2021/07/28 09:36:15;;;;;;;12.45;6.72;;;;;;;38.20;35.36;101122.81;4919398;29;20473;-73
2021/07/28 09:39:03;;;;;;;11.93;5.90;;;;;;;38.28;33.99;101129.03;4919720;29;20042;-73
2021/07/28 09:41:49;;;;;;;10.18;6.03;;;;;;;37.95;33.79;101126.94;4919344;29;20040;-73
2021/07/28 09:44:36;;;;;;;18.20;6.85;;;;;;;37.90;34.46;101123.94;4919773;29;20024;-73
2021/07/28 09:47:38;;;;;;;13.40;6.82;;;;;;;37.67;34.53;101129.56;4918258;29;20119;-73
2021/07/28 09:50:25;;;;;;;10.85;6.40;;;;;;;37.80;35.92;101121.50;4919935;29;20032;-73
2021/07/28 09:53:10;;;;;;;11.95;6.22;;;;;;;38.34;34.83;101119.19;4918868;29;20036;-73
2021/07/28 09:55:57;;;;;;;11.77;6.22;;;;;;;37.83;34.04;101120.28;4919453;29;20123;-73
2021/07/28 09:58:43;;;;;;;14.10;6.25;;;;;;;38.51;33.02;101123.38;4919187;29;20360;-73
2021/07/28 10:01:34;;;;;;;11.98;6.10;;;;;;;38.38;33.18;101113.13;4919128;29;20028;-73
2021/07/28 10:04:20;;;;;;;19.58;6.22;;;;;;;37.81;33.48;101117.72;4918698;29;20052;-71
2021/07/28 10:07:06;;;;;;;12.57;5.50;;;;;;;37.85;33.71;101112.75;4918849;29;20107;-70
2021/07/28 10:10:11;;;;;;;13.15;6.15;;;;;;;37.66;33.55;101106.00;4918731;29;20070;-70
2021/07/28 10:12:58;;;;;;;10.50;5.70;;;;;;;37.72;32.88;101099.75;4919764;29;20028;-73
2021/07/28 10:15:45;;;;;;;9.80;5.60;;;;;;;37.70;33.47;101103.72;4918980;29;20039;-73
2021/07/28 10:18:31;;;;;;;14.68;5.85;;;;;;;37.66;32.91;101097.78;4919164;29;20046;-72
2021/07/28 10:21:17;;;;;;;11.80;6.20;;;;;;;37.90;32.89;101091.97;4918921;29;20043;-71
2021/07/28 10:24:04;;;;;;;11.73;5.80;;;;;;;37.62;32.32;101088.28;4918718;29;20024;-72
2021/07/28 10:26:53;;;;;;;13.70;6.15;;;;;;;37.76;32.18;101090.09;4919060;29;20033;-72
2021/07/28 10:29:39;;;;;;;16.83;6.18;;;;;;;37.57;32.07;101090.69;4918385;29;20039;-72
2021/07/28 10:32:33;;;;;;;21.20;6.00;;;;;;;37.78;31.69;101076.25;4919654;29;20032;-72
2021/07/28 10:35:28;;;;;;;17.58;6.45;;;;;;;38.00;31.68;101075.19;4918887;29;20056;-72
2021/07/28 10:38:21;;;;;;;12.38;5.93;;;;;;;37.70;31.70;101077.22;4918729;29;20040;-72
2021/07/28 10:41:09;;;;;;;14.32;6.30;;;;;;;37.46;32.55;101082.13;4918508;29;20051;-72
2021/07/28 10:44:13;;;;;;;14.20;6.07;;;;;;;37.65;31.40;101079.66;4919477;29;20024;-70
2021/07/28 10:47:02;;;;;;;13.13;6.15;;;;;;;37.91;31.78;101079.09;4918712;29;20031;-70
2021/07/28 10:49:49;;;;;;;16.52;6.65;;;;;;;38.01;31.81;101072.25;4918782;29;20031;-71
2021/07/28 10:52:41;;;;;;;13.18;6.75;;;;;;;37.90;31.52;101081.03;4918042;29;20043;-72
2021/07/28 10:55:30;;;;;;;12.70;6.57;;;;;;;38.14;31.84;101068.84;4918599;29;20042;-71
2021/07/28 10:58:25;;;;;;;13.70;7.22;;;;;;;38.24;32.13;101070.22;4918347;29;20115;-72
2021/07/28 11:01:11;;;;;;;15.02;7.45;;;;;;;38.41;32.44;101070.78;4918278;29;20023;-73
2021/07/28 11:04:22;;;;;;;10.75;6.70;;;;;;;38.70;32.73;101065.97;4917420;29;20020;-74
2021/07/28 11:07:09;;;;;;;11.57;6.95;;;;;;;39.18;33.05;101069.69;4918026;29;20472;-73
2021/07/28 11:10:04;;;;;;;20.98;7.65;;;;;;;39.05;33.67;101068.78;4917991;29;20453;-72
2021/07/28 11:12:51;;;;;;;19.52;7.43;;;;;;;39.37;32.43;101063.47;4917637;29;20074;-72
2021/07/28 11:15:39;;;;;;;14.90;7.75;;;;;;;39.12;32.86;101066.94;4917890;29;20032;-72
2021/07/28 11:18:49;;;;;;;13.27;7.30;;;;;;;39.36;32.00;101060.97;4917847;29;20119;-72
2021/07/28 11:21:35;;;;;;;18.10;6.85;;;;;;;39.23;32.16;101055.34;4918241;29;20430;-72
2021/07/28 11:24:21;;;;;;;16.75;7.40;;;;;;;39.33;31.59;101058.59;4917794;29;20028;-72
2021/07/28 11:27:11;;;;;;;17.67;7.72;;;;;;;39.17;32.14;101051.53;4917488;29;20035;-72
2021/07/28 11:30:13;;;;;;;16.35;8.05;;;;;;;38.75;31.82;101047.06;4918048;29;20362;-73
2021/07/28 11:33:12;;;;;;;14.23;7.30;;;;;;;39.40;31.86;101052.09;4917544;29;20044;-72
2021/07/28 11:35:59;;;;;;;14.90;7.32;;;;;;;39.32;32.27;101034.97;4917572;29;20031;-70
2021/07/28 11:38:46;;;;;;;15.95;7.43;;;;;;;39.92;32.02;101033.06;4917530;29;20056;-70
2021/07/28 11:41:31;;;;;;;12.13;6.85;;;;;;;39.80;32.04;101026.50;4917033;29;20115;-70
2021/07/28 11:44:19;;;;;;;12.20;7.28;;;;;;;39.94;32.17;101030.13;4917497;29;20030;-70
2021/07/28 11:47:04;;;;;;;20.75;7.20;;;;;;;39.60;31.93;101030.22;4916891;29;20028;-70
2021/07/28 11:50:05;;;;;;;14.27;7.18;;;;;;;39.57;32.21;101022.41;4917558;29;20114;-70
2021/07/28 11:52:50;;;;;;;12.75;6.95;;;;;;;39.07;32.42;101022.78;4916827;29;20369;-70
2021/07/28 11:55:36;;;;;;;14.20;7.13;;;;;;;39.96;32.11;101020.59;4917427;29;20453;-72
2021/07/28 11:58:22;;;;;;;14.75;7.40;;;;;;;39.97;31.68;101015.97;4916881;29;20031;-71
2021/07/28 12:01:25;;;;;;;16.85;7.13;;;;;;;39.47;31.59;101006.34;4917733;29;20104;-70
2021/07/28 12:04:17;;;;;;;11.95;7.00;;;;;;;39.65;31.89;101006.59;4916977;29;20038;-71
2021/07/28 12:07:16;;;;;;;10.93;6.88;;;;;;;39.90;31.17;101004.13;4917391;29;20411;-71
2021/07/28 12:10:04;;;;;;;13.95;7.50;;;;;;;39.89;31.58;100996.97;4917032;29;20074;-71
2021/07/28 12:12:50;;;;;;;12.55;7.00;;;;;;;39.61;31.57;100999.00;4917566;29;20586;-71
2021/07/28 12:15:35;;;;;;;12.27;7.13;;;;;;;39.94;32.16;101000.78;4918496;29;20084;-71
2021/07/28 12:18:44;;;;;;;14.30;6.72;;;;;;;40.29;30.82;100994.03;4919290;29;20028;-70
2021/07/28 12:21:57;;;;;;;13.70;7.25;;;;;;;40.72;31.04;100989.75;4918388;29;20512;-71
2021/07/28 12:24:48;;;;;;;21.33;7.75;;;;;;;40.37;31.46;100979.25;4917434;29;20039;-71
2021/07/28 12:27:36;;;;;;;16.85;7.63;;;;;;;40.36;31.46;100977.53;4916778;29;20028;-71
2021/07/28 12:30:30;;;;;;;17.92;7.63;;;;;;;40.13;32.66;100971.63;4916998;29;20107;-71
2021/07/28 12:33:22;;;;;;;13.27;7.22;;;;;;;40.03;32.15;100972.03;4916959;29;20548;-70
2021/07/28 12:36:08;;;;;;;14.40;7.32;;;;;;;39.88;31.92;100963.16;4917030;29;20068;-70
2021/07/28 12:38:57;;;;;;;11.63;6.93;;;;;;;39.92;32.21;100961.69;4917162;29;20357;-71
2021/07/28 12:41:43;;;;;;;13.88;7.07;;;;;;;39.83;31.78;100960.22;4916640;29;20028;-71
2021/07/28 12:44:28;;;;;;;14.50;7.40;;;;;;;39.47;32.55;100956.97;4916976;29;20106;-71
2021/07/28 12:47:21;;;;;;;14.05;7.47;;;;;;;39.81;32.78;100958.75;4916857;29;20468;-72
2021/07/28 12:50:07;;;;;;;12.80;7.97;;;;;;;39.97;32.14;100955.56;4916856;29;20044;-70